SIA326 WSSS-EDDF
Flight info
| Callsign | SIA326 |
|---|---|
| Flight time | N/A |
| Altitude | 34000 |
| Route | AROSO3A AROSO Y513 KALIL Y501 RINBA Y503 VPL P628 KAGUL/N0505F360 P628 RK G202 ZB L750 DUDEG/N0500F380 L750 RANAH B449 ETRAP B447 KRS B143 TUNEK A909 RODAR M11 REBLO UM11 CRM UL746 GOKPA/N0496F400 UL746 ODERO DCT OPT DCT IRLOX DCT BUDOP DCT MAREG DCT KOVEL DCT DITIS DCT RAPET T170 VAGAB/N0395F240 T170 GAPLA T178 KERAX KERAX5A |
| Aircraft | A388/J-SADE2E3FGHIJ3J4J5M1RWXY/LB1D1 |
Departure
| Time | 2026-05-04 23:42 |
|---|---|
| Airport | Singapore Changi Airport (WSSS) |
Arrival
| Time | N/A |
|---|---|
| Airport | Frankfurt Main Airport (EDDF) |
| Time | Latitude | Longitude | Altitude | Speed | Heading |
|---|---|---|---|---|---|
| 2026-05-04 22:53 | 1.35775 | 103.98514 | 30 ft | 0 kts | 72° |
| 2026-05-04 23:27 | 1.35770 | 103.98495 | 30 ft | 4 kts | 84° |
| 2026-05-04 23:27 | 1.35771 | 103.98470 | 30 ft | 4 kts | 105° |
| 2026-05-04 23:28 | 1.35782 | 103.98448 | 28 ft | 4 kts | 128° |
| 2026-05-04 23:28 | 1.35799 | 103.98433 | 27 ft | 4 kts | 156° |
| 2026-05-04 23:28 | 1.35818 | 103.98430 | 28 ft | 4 kts | 193° |
| 2026-05-04 23:28 | 1.35824 | 103.98432 | 27 ft | 1 kts | 202° |
| 2026-05-04 23:31 | 1.35822 | 103.98431 | 27 ft | 1 kts | 202° |
| 2026-05-04 23:32 | 1.35794 | 103.98420 | 27 ft | 7 kts | 203° |
| 2026-05-04 23:32 | 1.35731 | 103.98393 | 30 ft | 12 kts | 202° |
| 2026-05-04 23:32 | 1.35641 | 103.98355 | 30 ft | 16 kts | 202° |
| 2026-05-04 23:32 | 1.35527 | 103.98307 | 30 ft | 20 kts | 201° |
| 2026-05-04 23:33 | 1.35409 | 103.98259 | 30 ft | 15 kts | 204° |
| 2026-05-04 23:33 | 1.35301 | 103.98213 | 31 ft | 19 kts | 202° |
| 2026-05-04 23:33 | 1.35186 | 103.98164 | 30 ft | 17 kts | 202° |
| 2026-05-04 23:33 | 1.35066 | 103.98115 | 30 ft | 20 kts | 202° |
| 2026-05-04 23:34 | 1.34955 | 103.98068 | 30 ft | 15 kts | 203° |
| 2026-05-04 23:34 | 1.34860 | 103.98028 | 30 ft | 13 kts | 204° |
| 2026-05-04 23:34 | 1.34791 | 103.98039 | 30 ft | 11 kts | 119° |
| 2026-05-04 23:34 | 1.34745 | 103.98139 | 30 ft | 24 kts | 113° |
| 2026-05-04 23:35 | 1.34658 | 103.98345 | 48 ft | 36 kts | 112° |
| 2026-05-04 23:35 | 1.34590 | 103.98506 | 41 ft | 19 kts | 112° |
| 2026-05-04 23:35 | 1.34561 | 103.98574 | 32 ft | 11 kts | 114° |
| 2026-05-04 23:35 | 1.34519 | 103.98669 | 30 ft | 18 kts | 113° |
| 2026-05-04 23:36 | 1.34470 | 103.98784 | 30 ft | 18 kts | 113° |
| 2026-05-04 23:36 | 1.34431 | 103.98843 | 30 ft | 9 kts | 147° |
| 2026-05-04 23:36 | 1.34388 | 103.98848 | 31 ft | 6 kts | 208° |
| 2026-05-04 23:36 | 1.34334 | 103.98820 | 31 ft | 11 kts | 207° |
| 2026-05-04 23:37 | 1.34248 | 103.98782 | 30 ft | 16 kts | 202° |
| 2026-05-04 23:37 | 1.34137 | 103.98735 | 30 ft | 19 kts | 202° |
| 2026-05-04 23:37 | 1.34004 | 103.98680 | 30 ft | 22 kts | 202° |
| 2026-05-04 23:37 | 1.33866 | 103.98622 | 30 ft | 21 kts | 203° |
| 2026-05-04 23:38 | 1.33741 | 103.98569 | 30 ft | 16 kts | 203° |
| 2026-05-04 23:38 | 1.33629 | 103.98521 | 30 ft | 19 kts | 204° |
| 2026-05-04 23:38 | 1.33497 | 103.98464 | 30 ft | 22 kts | 202° |
| 2026-05-04 23:38 | 1.33360 | 103.98408 | 30 ft | 21 kts | 201° |
| 2026-05-04 23:39 | 1.33235 | 103.98342 | 30 ft | 17 kts | 202° |
| 2026-05-04 23:39 | 1.33116 | 103.98293 | 30 ft | 20 kts | 202° |
| 2026-05-04 23:39 | 1.33011 | 103.98269 | 30 ft | 14 kts | 153° |
| 2026-05-04 23:39 | 1.32963 | 103.98346 | 31 ft | 13 kts | 112° |
| 2026-05-04 23:40 | 1.32931 | 103.98426 | 33 ft | 11 kts | 112° |
| 2026-05-04 23:40 | 1.32909 | 103.98482 | 33 ft | 7 kts | 100° |
| 2026-05-04 23:40 | 1.32912 | 103.98506 | 33 ft | 2 kts | 54° |
| 2026-05-04 23:40 | 1.32927 | 103.98519 | 33 ft | 3 kts | 23° |
| 2026-05-04 23:41 | 1.32928 | 103.98520 | 33 ft | 0 kts | 23° |
| 2026-05-04 23:41 | 1.32938 | 103.98524 | 34 ft | 13 kts | 23° |
| 2026-05-04 23:41 | 1.33248 | 103.98655 | 32 ft | 85 kts | 23° |
| 2026-05-04 23:41 | 1.33999 | 103.98971 | 35 ft | 145 kts | 23° |
| 2026-05-04 23:42 | 1.35057 | 103.99424 | 51 ft | 181 kts | 24° |
| 2026-05-04 23:42 | 1.36193 | 103.99936 | 507 ft | 179 kts | 24° |
| 2026-05-04 23:42 | 1.37344 | 104.00432 | 1036 ft | 179 kts | 24° |
| 2026-05-04 23:42 | 1.38482 | 104.00900 | 1542 ft | 180 kts | 21° |
| 2026-05-04 23:43 | 1.39676 | 104.01325 | 1948 ft | 185 kts | 21° |
| 2026-05-04 23:43 | 1.40907 | 104.01815 | 2155 ft | 196 kts | 24° |
| 2026-05-04 23:43 | 1.42190 | 104.02378 | 2338 ft | 205 kts | 24° |
| 2026-05-04 23:43 | 1.43521 | 104.02961 | 2482 ft | 212 kts | 23° |
| 2026-05-04 23:44 | 1.44894 | 104.03552 | 2616 ft | 219 kts | 24° |
| 2026-05-04 23:44 | 1.46313 | 104.04168 | 2758 ft | 224 kts | 24° |
| 2026-05-04 23:44 | 1.47771 | 104.04767 | 2909 ft | 232 kts | 20° |
| 2026-05-04 23:44 | 1.49409 | 104.05213 | 3061 ft | 254 kts | 5° |
| 2026-05-04 23:45 | 1.51188 | 104.04989 | 3352 ft | 266 kts | 338° |
| 2026-05-04 23:45 | 1.52811 | 104.04072 | 3827 ft | 271 kts | 325° |
| 2026-05-04 23:45 | 1.54356 | 104.02993 | 4476 ft | 271 kts | 326° |
| 2026-05-04 23:45 | 1.55920 | 104.01961 | 5083 ft | 274 kts | 328° |
| 2026-05-04 23:46 | 1.57560 | 104.00975 | 5679 ft | 277 kts | 330° |
| 2026-05-04 23:46 | 1.59251 | 104.00024 | 6233 ft | 280 kts | 331° |
| 2026-05-04 23:46 | 1.60970 | 103.99088 | 6774 ft | 283 kts | 332° |
| 2026-05-04 23:46 | 1.62709 | 103.98152 | 7315 ft | 286 kts | 332° |
| 2026-05-04 23:47 | 1.64474 | 103.97203 | 7850 ft | 288 kts | 332° |
| 2026-05-04 23:47 | 1.66246 | 103.96249 | 8415 ft | 291 kts | 331° |
| 2026-05-04 23:47 | 1.68038 | 103.95283 | 8948 ft | 293 kts | 331° |
| 2026-05-04 23:47 | 1.69844 | 103.94309 | 9491 ft | 296 kts | 331° |
| 2026-05-04 23:48 | 1.71667 | 103.93326 | 10007 ft | 299 kts | 331° |
| 2026-05-04 23:48 | 1.73524 | 103.92321 | 10260 ft | 311 kts | 330° |
| 2026-05-04 23:48 | 1.75352 | 103.91076 | 10409 ft | 326 kts | 320° |
| 2026-05-04 23:48 | 1.76998 | 103.89443 | 10536 ft | 340 kts | 309° |
| 2026-05-04 23:49 | 1.78455 | 103.87527 | 10724 ft | 351 kts | 307° |
| 2026-05-04 23:49 | 1.79943 | 103.85577 | 11152 ft | 354 kts | 308° |
| 2026-05-04 23:49 | 1.81456 | 103.83620 | 11596 ft | 358 kts | 308° |
| 2026-05-04 23:49 | 1.82966 | 103.81672 | 12051 ft | 361 kts | 308° |
| 2026-05-04 23:50 | 1.84488 | 103.79708 | 12494 ft | 364 kts | 308° |
| 2026-05-04 23:50 | 1.86041 | 103.77701 | 12954 ft | 367 kts | 308° |
| 2026-05-04 23:50 | 1.87607 | 103.75675 | 13424 ft | 369 kts | 308° |